Terminal Aerodrome Forecast
Issued by NWS

Home | Current Version | Previous Version | Text Only | Print | Product List | Glossary On
Versions: 1 2 3 4 5 6 7 8 9 10 11 12 13 14 15 16 17 18 19
000
FTUS43 KGRB 290500
TAFCWA
TAF
KCWA 290524Z 2906/3006 13004KT 6SM -RA SCT007 OVC025
      TEMPO 2906/2910 4SM -SHRA BKN007
     FM291000 17007KT 4SM -SHRA BR SCT007 OVC012
     FM291600 18008KT P6SM VCSH BKN015 OVC025
     FM292000 19009KT 4SM -SHRA SCT025 OVC035 PROB30 2920/2924 3SM
      TSRA BR BKN025CB
      AMD LTD TO CLD VIS AND WIND TIL 291200=

USA.gov is the U.S. government's official web portal to all federal, state and local government web resources and services.